Azalea, Virginia
Current Conditions -  °F | °C
As of 12:54 PM on Friday 21 Nov 2014 (Local Time) from KOFP Reporting Station
Clear Clear  
Wind Chill: 34°   Ceiling: Unl
Heat Index: 40°   Visibility: 10mi
Dew Point:   Wind: 8mph
Humidity: 28%   Direction: 290°WNW
Pressure: 30.46"   Gusts: NA
Location:  37.619°N, 77.441°W
Report Text: KOFP 211754Z AUTO 29007KT 10SM CLR 04/M13 A3046 RMK AO2 SLP317 T00441128 10050 21056 51003
Loading
Personal Weather Stations






























Interactive Weather Map New forecast layout! Learn more

10-Day Weather Forecast

Advertisements
Track Severe Weather on mobile